sensor_id;sensor_type;location;lat;lon;timestamp;P1;durP1;ratioP1;P2;durP2;ratioP2
18568;SDS011;14780;48.316;-1.050;2023-02-07T00:00:31;6.38;;;3.10;;
18568;SDS011;14780;48.316;-1.050;2023-02-07T00:03:16;5.35;;;2.85;;
18568;SDS011;14780;48.316;-1.050;2023-02-07T00:06:06;4.38;;;2.70;;
18568;SDS011;14780;48.316;-1.050;2023-02-07T00:08:55;4.55;;;2.83;;
18568;SDS011;14780;48.316;-1.050;2023-02-07T00:11:44;7.45;;;3.30;;
18568;SDS011;14780;48.316;-1.050;2023-02-07T00:14:29;5.38;;;2.95;;
18568;SDS011;14780;48.316;-1.050;2023-02-07T00:17:14;4.80;;;2.53;;
18568;SDS011;14780;48.316;-1.050;2023-02-07T00:19:59;7.60;;;3.25;;
18568;SDS011;14780;48.316;-1.050;2023-02-07T00:22:44;6.05;;;2.72;;
18568;SDS011;14780;48.316;-1.050;2023-02-07T00:25:28;5.70;;;2.63;;
18568;SDS011;14780;48.316;-1.050;2023-02-07T00:28:13;4.10;;;2.65;;
18568;SDS011;14780;48.316;-1.050;2023-02-07T00:31:05;5.53;;;2.92;;
18568;SDS011;14780;48.316;-1.050;2023-02-07T00:33:55;5.70;;;2.72;;
18568;SDS011;14780;48.316;-1.050;2023-02-07T00:36:43;6.35;;;2.97;;
18568;SDS011;14780;48.316;-1.050;2023-02-07T00:39:27;5.20;;;2.70;;
18568;SDS011;14780;48.316;-1.050;2023-02-07T00:42:12;5.75;;;3.20;;
18568;SDS011;14780;48.316;-1.050;2023-02-07T00:44:56;4.53;;;2.60;;
18568;SDS011;14780;48.316;-1.050;2023-02-07T00:47:41;5.10;;;2.75;;
18568;SDS011;14780;48.316;-1.050;2023-02-07T00:50:26;8.73;;;2.95;;
18568;SDS011;14780;48.316;-1.050;2023-02-07T00:53:10;5.28;;;2.50;;
18568;SDS011;14780;48.316;-1.050;2023-02-07T00:55:55;5.00;;;3.03;;
18568;SDS011;14780;48.316;-1.050;2023-02-07T00:58:40;5.13;;;2.80;;
18568;SDS011;14780;48.316;-1.050;2023-02-07T01:01:25;4.60;;;2.70;;
18568;SDS011;14780;48.316;-1.050;2023-02-07T01:04:10;4.93;;;2.72;;
18568;SDS011;14780;48.316;-1.050;2023-02-07T01:06:55;4.00;;;2.70;;
18568;SDS011;14780;48.316;-1.050;2023-02-07T01:09:39;4.45;;;2.53;;
18568;SDS011;14780;48.316;-1.050;2023-02-07T01:12:24;5.30;;;2.97;;
18568;SDS011;14780;48.316;-1.050;2023-02-07T01:15:09;4.20;;;2.60;;
18568;SDS011;14780;48.316;-1.050;2023-02-07T01:17:54;5.25;;;2.70;;
18568;SDS011;14780;48.316;-1.050;2023-02-07T01:20:38;4.47;;;2.65;;
18568;SDS011;14780;48.316;-1.050;2023-02-07T01:23:23;5.38;;;2.88;;
18568;SDS011;14780;48.316;-1.050;2023-02-07T01:26:08;4.88;;;2.80;;
18568;SDS011;14780;48.316;-1.050;2023-02-07T01:28:53;4.53;;;2.72;;
18568;SDS011;14780;48.316;-1.050;2023-02-07T01:31:40;6.47;;;2.90;;
18568;SDS011;14780;48.316;-1.050;2023-02-07T01:34:25;4.75;;;2.63;;
18568;SDS011;14780;48.316;-1.050;2023-02-07T01:37:09;4.60;;;2.63;;
18568;SDS011;14780;48.316;-1.050;2023-02-07T01:39:54;5.40;;;2.83;;
18568;SDS011;14780;48.316;-1.050;2023-02-07T01:42:39;5.38;;;2.80;;
18568;SDS011;14780;48.316;-1.050;2023-02-07T01:45:37;5.43;;;2.85;;
18568;SDS011;14780;48.316;-1.050;2023-02-07T01:48:26;5.03;;;2.75;;
18568;SDS011;14780;48.316;-1.050;2023-02-07T01:51:17;5.47;;;2.95;;
18568;SDS011;14780;48.316;-1.050;2023-02-07T01:54:03;4.80;;;2.95;;
18568;SDS011;14780;48.316;-1.050;2023-02-07T01:56:53;5.68;;;3.05;;
18568;SDS011;14780;48.316;-1.050;2023-02-07T01:59:41;7.13;;;3.00;;
18568;SDS011;14780;48.316;-1.050;2023-02-07T02:02:28;5.10;;;2.80;;
18568;SDS011;14780;48.316;-1.050;2023-02-07T02:05:17;5.88;;;2.78;;
18568;SDS011;14780;48.316;-1.050;2023-02-07T02:08:02;5.68;;;2.80;;
18568;SDS011;14780;48.316;-1.050;2023-02-07T02:14:05;5.53;;;2.92;;
18568;SDS011;14780;48.316;-1.050;2023-02-07T02:17:15;4.57;;;2.85;;
18568;SDS011;14780;48.316;-1.050;2023-02-07T02:23:27;7.53;;;2.95;;
18568;SDS011;14780;48.316;-1.050;2023-02-07T02:39:38;5.43;;;2.63;;
18568;SDS011;14780;48.316;-1.050;2023-02-07T02:43:17;5.40;;;3.00;;
18568;SDS011;14780;48.316;-1.050;2023-02-07T02:45:52;4.97;;;3.10;;
18568;SDS011;14780;48.316;-1.050;2023-02-07T02:48:41;5.25;;;3.00;;
18568;SDS011;14780;48.316;-1.050;2023-02-07T02:51:28;5.95;;;3.00;;
18568;SDS011;14780;48.316;-1.050;2023-02-07T02:54:27;7.32;;;3.33;;
18568;SDS011;14780;48.316;-1.050;2023-02-07T03:00:23;6.28;;;2.90;;
18568;SDS011;14780;48.316;-1.050;2023-02-07T03:03:31;5.82;;;3.03;;
18568;SDS011;14780;48.316;-1.050;2023-02-07T03:06:46;3.47;;;2.50;;
18568;SDS011;14780;48.316;-1.050;2023-02-07T03:21:49;6.90;;;2.67;;
18568;SDS011;14780;48.316;-1.050;2023-02-07T03:24:45;5.13;;;3.10;;
18568;SDS011;14780;48.316;-1.050;2023-02-07T03:27:34;4.85;;;2.97;;
18568;SDS011;14780;48.316;-1.050;2023-02-07T03:30:22;5.10;;;3.13;;
18568;SDS011;14780;48.316;-1.050;2023-02-07T03:33:11;6.00;;;2.90;;
18568;SDS011;14780;48.316;-1.050;2023-02-07T03:39:02;5.75;;;3.08;;
18568;SDS011;14780;48.316;-1.050;2023-02-07T03:41:50;4.93;;;2.70;;
18568;SDS011;14780;48.316;-1.050;2023-02-07T03:44:42;5.40;;;3.03;;
18568;SDS011;14780;48.316;-1.050;2023-02-07T03:47:30;5.80;;;2.92;;
18568;SDS011;14780;48.316;-1.050;2023-02-07T03:50:15;4.35;;;2.85;;
18568;SDS011;14780;48.316;-1.050;2023-02-07T03:53:00;6.53;;;3.10;;
18568;SDS011;14780;48.316;-1.050;2023-02-07T03:55:45;4.35;;;2.75;;
18568;SDS011;14780;48.316;-1.050;2023-02-07T03:58:31;4.43;;;2.53;;
18568;SDS011;14780;48.316;-1.050;2023-02-07T04:01:15;5.90;;;2.85;;
18568;SDS011;14780;48.316;-1.050;2023-02-07T04:04:00;5.30;;;2.85;;
18568;SDS011;14780;48.316;-1.050;2023-02-07T04:06:45;4.88;;;2.83;;
18568;SDS011;14780;48.316;-1.050;2023-02-07T04:09:30;5.97;;;3.03;;
18568;SDS011;14780;48.316;-1.050;2023-02-07T04:12:14;6.90;;;3.10;;
18568;SDS011;14780;48.316;-1.050;2023-02-07T04:15:00;4.82;;;2.88;;
18568;SDS011;14780;48.316;-1.050;2023-02-07T04:17:46;5.07;;;3.08;;
18568;SDS011;14780;48.316;-1.050;2023-02-07T04:20:30;5.85;;;2.92;;
18568;SDS011;14780;48.316;-1.050;2023-02-07T04:23:15;6.20;;;3.00;;
18568;SDS011;14780;48.316;-1.050;2023-02-07T04:26:00;5.35;;;2.90;;
18568;SDS011;14780;48.316;-1.050;2023-02-07T04:28:45;5.55;;;2.67;;
18568;SDS011;14780;48.316;-1.050;2023-02-07T04:31:29;7.18;;;2.80;;
18568;SDS011;14780;48.316;-1.050;2023-02-07T04:34:14;5.00;;;2.85;;
18568;SDS011;14780;48.316;-1.050;2023-02-07T04:36:59;4.68;;;3.10;;
18568;SDS011;14780;48.316;-1.050;2023-02-07T04:39:44;5.85;;;3.20;;
18568;SDS011;14780;48.316;-1.050;2023-02-07T04:42:29;5.22;;;2.90;;
18568;SDS011;14780;48.316;-1.050;2023-02-07T04:45:14;5.68;;;2.90;;
18568;SDS011;14780;48.316;-1.050;2023-02-07T04:47:59;4.43;;;2.55;;
18568;SDS011;14780;48.316;-1.050;2023-02-07T04:50:43;6.03;;;2.90;;
18568;SDS011;14780;48.316;-1.050;2023-02-07T04:53:28;5.05;;;2.80;;
18568;SDS011;14780;48.316;-1.050;2023-02-07T04:56:13;5.65;;;2.58;;
18568;SDS011;14780;48.316;-1.050;2023-02-07T04:58:57;4.35;;;3.08;;
18568;SDS011;14780;48.316;-1.050;2023-02-07T05:01:42;5.70;;;3.00;;
18568;SDS011;14780;48.316;-1.050;2023-02-07T05:04:27;4.82;;;2.90;;
18568;SDS011;14780;48.316;-1.050;2023-02-07T05:07:11;4.50;;;2.90;;
18568;SDS011;14780;48.316;-1.050;2023-02-07T05:09:56;4.70;;;2.85;;
18568;SDS011;14780;48.316;-1.050;2023-02-07T05:12:40;5.82;;;3.05;;
18568;SDS011;14780;48.316;-1.050;2023-02-07T05:15:25;8.93;;;3.35;;
18568;SDS011;14780;48.316;-1.050;2023-02-07T05:18:10;7.75;;;3.50;;
18568;SDS011;14780;48.316;-1.050;2023-02-07T05:20:55;4.88;;;2.90;;
18568;SDS011;14780;48.316;-1.050;2023-02-07T05:23:40;6.15;;;3.38;;
18568;SDS011;14780;48.316;-1.050;2023-02-07T05:26:25;6.00;;;3.20;;
18568;SDS011;14780;48.316;-1.050;2023-02-07T05:29:10;5.30;;;3.20;;
18568;SDS011;14780;48.316;-1.050;2023-02-07T05:31:55;6.63;;;3.10;;
18568;SDS011;14780;48.316;-1.050;2023-02-07T05:34:58;4.65;;;2.70;;
18568;SDS011;14780;48.316;-1.050;2023-02-07T05:37:43;6.00;;;2.78;;
18568;SDS011;14780;48.316;-1.050;2023-02-07T05:40:29;5.70;;;3.20;;
18568;SDS011;14780;48.316;-1.050;2023-02-07T05:43:14;4.90;;;2.97;;
18568;SDS011;14780;48.316;-1.050;2023-02-07T05:45:58;7.15;;;3.47;;
18568;SDS011;14780;48.316;-1.050;2023-02-07T05:48:43;5.90;;;3.10;;
18568;SDS011;14780;48.316;-1.050;2023-02-07T05:51:28;7.53;;;3.83;;
18568;SDS011;14780;48.316;-1.050;2023-02-07T05:54:12;8.15;;;3.20;;
18568;SDS011;14780;48.316;-1.050;2023-02-07T05:56:57;7.10;;;3.22;;
18568;SDS011;14780;48.316;-1.050;2023-02-07T05:59:42;7.82;;;3.75;;
18568;SDS011;14780;48.316;-1.050;2023-02-07T06:02:27;8.50;;;3.83;;
18568;SDS011;14780;48.316;-1.050;2023-02-07T06:05:12;9.50;;;3.65;;
18568;SDS011;14780;48.316;-1.050;2023-02-07T06:07:59;8.02;;;3.72;;
18568;SDS011;14780;48.316;-1.050;2023-02-07T06:10:43;8.07;;;3.33;;
18568;SDS011;14780;48.316;-1.050;2023-02-07T06:13:30;7.28;;;3.70;;
18568;SDS011;14780;48.316;-1.050;2023-02-07T06:16:15;7.70;;;3.70;;
18568;SDS011;14780;48.316;-1.050;2023-02-07T06:19:00;9.00;;;3.92;;
18568;SDS011;14780;48.316;-1.050;2023-02-07T06:21:45;7.22;;;4.03;;
18568;SDS011;14780;48.316;-1.050;2023-02-07T06:24:29;9.60;;;3.50;;
18568;SDS011;14780;48.316;-1.050;2023-02-07T06:27:14;6.55;;;3.75;;
18568;SDS011;14780;48.316;-1.050;2023-02-07T06:29:58;7.18;;;3.80;;
18568;SDS011;14780;48.316;-1.050;2023-02-07T06:32:43;8.48;;;3.80;;
18568;SDS011;14780;48.316;-1.050;2023-02-07T06:35:27;9.30;;;4.15;;
18568;SDS011;14780;48.316;-1.050;2023-02-07T06:38:15;8.18;;;3.97;;
18568;SDS011;14780;48.316;-1.050;2023-02-07T06:41:01;6.97;;;3.78;;
18568;SDS011;14780;48.316;-1.050;2023-02-07T06:43:45;6.65;;;3.65;;
18568;SDS011;14780;48.316;-1.050;2023-02-07T06:46:31;7.78;;;4.22;;
18568;SDS011;14780;48.316;-1.050;2023-02-07T06:49:16;7.93;;;3.85;;
18568;SDS011;14780;48.316;-1.050;2023-02-07T06:52:00;7.90;;;3.83;;
18568;SDS011;14780;48.316;-1.050;2023-02-07T06:54:45;6.18;;;3.60;;
18568;SDS011;14780;48.316;-1.050;2023-02-07T06:57:30;7.53;;;3.75;;
18568;SDS011;14780;48.316;-1.050;2023-02-07T07:00:15;6.93;;;3.88;;
18568;SDS011;14780;48.316;-1.050;2023-02-07T07:03:00;6.65;;;3.75;;
18568;SDS011;14780;48.316;-1.050;2023-02-07T07:05:45;10.05;;;4.22;;
18568;SDS011;14780;48.316;-1.050;2023-02-07T07:08:30;9.32;;;4.30;;
18568;SDS011;14780;48.316;-1.050;2023-02-07T07:11:14;9.25;;;4.00;;
18568;SDS011;14780;48.316;-1.050;2023-02-07T07:13:59;8.05;;;4.47;;
18568;SDS011;14780;48.316;-1.050;2023-02-07T07:16:44;7.80;;;3.65;;
18568;SDS011;14780;48.316;-1.050;2023-02-07T07:19:29;8.75;;;4.68;;
18568;SDS011;14780;48.316;-1.050;2023-02-07T07:22:14;9.80;;;3.97;;
18568;SDS011;14780;48.316;-1.050;2023-02-07T07:24:59;14.90;;;6.82;;
18568;SDS011;14780;48.316;-1.050;2023-02-07T07:27:44;937.42;;;720.50;;
18568;SDS011;14780;48.316;-1.050;2023-02-07T07:30:30;1258.78;;;889.47;;
18568;SDS011;14780;48.316;-1.050;2023-02-07T07:33:15;1078.93;;;822.35;;
18568;SDS011;14780;48.316;-1.050;2023-02-07T07:36:00;911.53;;;748.53;;
18568;SDS011;14780;48.316;-1.050;2023-02-07T07:38:46;550.65;;;487.67;;
18568;SDS011;14780;48.316;-1.050;2023-02-07T07:41:31;457.40;;;399.70;;
18568;SDS011;14780;48.316;-1.050;2023-02-07T07:44:16;419.42;;;361.90;;
18568;SDS011;14780;48.316;-1.050;2023-02-07T07:47:01;395.73;;;338.15;;
18568;SDS011;14780;48.316;-1.050;2023-02-07T07:49:46;358.88;;;307.38;;
18568;SDS011;14780;48.316;-1.050;2023-02-07T07:52:31;325.60;;;276.15;;
18568;SDS011;14780;48.316;-1.050;2023-02-07T07:55:15;309.33;;;255.32;;
18568;SDS011;14780;48.316;-1.050;2023-02-07T07:58:00;274.95;;;223.75;;
18568;SDS011;14780;48.316;-1.050;2023-02-07T08:00:44;258.15;;;215.25;;
18568;SDS011;14780;48.316;-1.050;2023-02-07T08:03:31;234.20;;;187.25;;
18568;SDS011;14780;48.316;-1.050;2023-02-07T08:06:16;224.80;;;179.75;;
18568;SDS011;14780;48.316;-1.050;2023-02-07T08:09:01;207.85;;;165.02;;
18568;SDS011;14780;48.316;-1.050;2023-02-07T08:11:46;184.63;;;151.85;;
18568;SDS011;14780;48.316;-1.050;2023-02-07T08:14:31;166.85;;;134.52;;
18568;SDS011;14780;48.316;-1.050;2023-02-07T08:17:16;160.63;;;130.30;;
18568;SDS011;14780;48.316;-1.050;2023-02-07T08:20:01;157.40;;;128.48;;
18568;SDS011;14780;48.316;-1.050;2023-02-07T08:22:47;137.23;;;110.28;;
18568;SDS011;14780;48.316;-1.050;2023-02-07T08:25:32;133.90;;;105.82;;
18568;SDS011;14780;48.316;-1.050;2023-02-07T08:28:17;123.95;;;96.70;;
18568;SDS011;14780;48.316;-1.050;2023-02-07T08:31:03;114.88;;;86.80;;
18568;SDS011;14780;48.316;-1.050;2023-02-07T08:33:48;99.93;;;75.75;;
18568;SDS011;14780;48.316;-1.050;2023-02-07T08:36:34;98.75;;;74.50;;
18568;SDS011;14780;48.316;-1.050;2023-02-07T08:39:19;84.95;;;63.05;;
18568;SDS011;14780;48.316;-1.050;2023-02-07T08:42:04;80.97;;;59.75;;
18568;SDS011;14780;48.316;-1.050;2023-02-07T08:44:53;72.90;;;51.97;;
18568;SDS011;14780;48.316;-1.050;2023-02-07T08:47:39;67.35;;;49.00;;
18568;SDS011;14780;48.316;-1.050;2023-02-07T08:50:24;63.38;;;44.28;;
18568;SDS011;14780;48.316;-1.050;2023-02-07T08:53:08;57.17;;;42.03;;
18568;SDS011;14780;48.316;-1.050;2023-02-07T08:55:54;51.03;;;38.28;;
18568;SDS011;14780;48.316;-1.050;2023-02-07T08:58:38;51.60;;;35.60;;
18568;SDS011;14780;48.316;-1.050;2023-02-07T09:01:23;48.90;;;33.25;;
18568;SDS011;14780;48.316;-1.050;2023-02-07T09:04:09;41.03;;;28.58;;
18568;SDS011;14780;48.316;-1.050;2023-02-07T09:06:54;40.78;;;27.20;;
18568;SDS011;14780;48.316;-1.050;2023-02-07T09:09:39;37.15;;;24.30;;
18568;SDS011;14780;48.316;-1.050;2023-02-07T09:12:24;30.88;;;21.92;;
18568;SDS011;14780;48.316;-1.050;2023-02-07T09:15:08;28.48;;;20.17;;
18568;SDS011;14780;48.316;-1.050;2023-02-07T09:17:53;28.55;;;19.58;;
18568;SDS011;14780;48.316;-1.050;2023-02-07T09:20:38;27.52;;;18.00;;
18568;SDS011;14780;48.316;-1.050;2023-02-07T09:23:22;24.17;;;16.80;;
18568;SDS011;14780;48.316;-1.050;2023-02-07T09:26:07;22.52;;;15.15;;
18568;SDS011;14780;48.316;-1.050;2023-02-07T09:29:02;20.95;;;13.95;;
18568;SDS011;14780;48.316;-1.050;2023-02-07T09:31:47;23.38;;;14.05;;
18568;SDS011;14780;48.316;-1.050;2023-02-07T09:34:33;22.83;;;12.40;;
18568;SDS011;14780;48.316;-1.050;2023-02-07T09:37:18;17.90;;;11.15;;
18568;SDS011;14780;48.316;-1.050;2023-02-07T09:40:03;14.20;;;9.30;;
18568;SDS011;14780;48.316;-1.050;2023-02-07T09:45:56;14.27;;;8.40;;
18568;SDS011;14780;48.316;-1.050;2023-02-07T09:48:50;14.23;;;7.68;;
18568;SDS011;14780;48.316;-1.050;2023-02-07T09:51:41;12.20;;;7.25;;
18568;SDS011;14780;48.316;-1.050;2023-02-07T09:54:29;9.05;;;6.43;;
18568;SDS011;14780;48.316;-1.050;2023-02-07T09:57:35;11.23;;;6.25;;
18568;SDS011;14780;48.316;-1.050;2023-02-07T10:00:32;9.63;;;6.15;;
18568;SDS011;14780;48.316;-1.050;2023-02-07T10:03:23;9.60;;;5.30;;
18568;SDS011;14780;48.316;-1.050;2023-02-07T10:06:16;9.85;;;5.88;;
18568;SDS011;14780;48.316;-1.050;2023-02-07T10:09:11;7.25;;;4.63;;
18568;SDS011;14780;48.316;-1.050;2023-02-07T10:12:03;8.25;;;5.00;;
18568;SDS011;14780;48.316;-1.050;2023-02-07T10:21:49;8.75;;;4.10;;
18568;SDS011;14780;48.316;-1.050;2023-02-07T10:27:31;7.43;;;3.67;;
18568;SDS011;14780;48.316;-1.050;2023-02-07T10:30:37;5.78;;;3.28;;
18568;SDS011;14780;48.316;-1.050;2023-02-07T10:33:32;9.30;;;3.97;;
18568;SDS011;14780;48.316;-1.050;2023-02-07T10:36:21;6.53;;;4.03;;
18568;SDS011;14780;48.316;-1.050;2023-02-07T10:39:11;7.53;;;3.85;;
18568;SDS011;14780;48.316;-1.050;2023-02-07T10:42:21;8.45;;;3.83;;
18568;SDS011;14780;48.316;-1.050;2023-02-07T10:45:10;9.27;;;3.85;;
18568;SDS011;14780;48.316;-1.050;2023-02-07T10:47:57;9.20;;;3.60;;
18568;SDS011;14780;48.316;-1.050;2023-02-07T10:50:42;6.78;;;3.47;;
18568;SDS011;14780;48.316;-1.050;2023-02-07T10:53:46;6.15;;;3.80;;
18568;SDS011;14780;48.316;-1.050;2023-02-07T10:56:44;5.88;;;3.55;;
18568;SDS011;14780;48.316;-1.050;2023-02-07T10:59:42;7.85;;;3.60;;
18568;SDS011;14780;48.316;-1.050;2023-02-07T11:10:59;5.43;;;3.08;;
18568;SDS011;14780;48.316;-1.050;2023-02-07T11:14:23;6.53;;;3.22;;
18568;SDS011;14780;48.316;-1.050;2023-02-07T11:17:18;5.30;;;2.72;;
18568;SDS011;14780;48.316;-1.050;2023-02-07T11:20:04;7.30;;;3.20;;
18568;SDS011;14780;48.316;-1.050;2023-02-07T11:22:51;6.15;;;3.03;;
18568;SDS011;14780;48.316;-1.050;2023-02-07T11:25:39;4.47;;;2.80;;
18568;SDS011;14780;48.316;-1.050;2023-02-07T11:28:26;8.00;;;3.13;;
18568;SDS011;14780;48.316;-1.050;2023-02-07T11:31:13;5.38;;;2.80;;
18568;SDS011;14780;48.316;-1.050;2023-02-07T11:46:00;5.20;;;3.00;;
18568;SDS011;14780;48.316;-1.050;2023-02-07T11:48:51;6.25;;;2.50;;
18568;SDS011;14780;48.316;-1.050;2023-02-07T11:51:39;4.45;;;2.38;;
18568;SDS011;14780;48.316;-1.050;2023-02-07T11:54:25;6.70;;;2.72;;
18568;SDS011;14780;48.316;-1.050;2023-02-07T11:57:12;3.88;;;2.38;;
18568;SDS011;14780;48.316;-1.050;2023-02-07T12:00:00;6.63;;;2.42;;
18568;SDS011;14780;48.316;-1.050;2023-02-07T12:02:50;6.68;;;2.70;;
18568;SDS011;14780;48.316;-1.050;2023-02-07T12:05:44;6.95;;;2.53;;
18568;SDS011;14780;48.316;-1.050;2023-02-07T12:08:34;3.88;;;2.35;;
18568;SDS011;14780;48.316;-1.050;2023-02-07T12:11:25;6.93;;;2.53;;
18568;SDS011;14780;48.316;-1.050;2023-02-07T12:14:19;5.88;;;2.50;;
18568;SDS011;14780;48.316;-1.050;2023-02-07T12:17:20;5.80;;;2.33;;
18568;SDS011;14780;48.316;-1.050;2023-02-07T12:20:23;3.30;;;2.30;;
18568;SDS011;14780;48.316;-1.050;2023-02-07T12:23:13;3.92;;;2.20;;
18568;SDS011;14780;48.316;-1.050;2023-02-07T12:29:22;5.18;;;2.30;;
18568;SDS011;14780;48.316;-1.050;2023-02-07T12:35:37;3.72;;;2.28;;
18568;SDS011;14780;48.316;-1.050;2023-02-07T12:38:51;9.18;;;2.33;;
18568;SDS011;14780;48.316;-1.050;2023-02-07T12:41:42;6.63;;;2.47;;
18568;SDS011;14780;48.316;-1.050;2023-02-07T12:44:33;6.30;;;2.50;;
18568;SDS011;14780;48.316;-1.050;2023-02-07T12:47:39;5.07;;;2.30;;
18568;SDS011;14780;48.316;-1.050;2023-02-07T12:50:54;8.25;;;2.55;;
18568;SDS011;14780;48.316;-1.050;2023-02-07T12:53:51;5.95;;;2.58;;
18568;SDS011;14780;48.316;-1.050;2023-02-07T13:02:28;4.95;;;2.53;;
18568;SDS011;14780;48.316;-1.050;2023-02-07T13:08:15;3.40;;;2.13;;
18568;SDS011;14780;48.316;-1.050;2023-02-07T13:14:18;5.70;;;2.40;;
18568;SDS011;14780;48.316;-1.050;2023-02-07T13:17:30;6.22;;;2.58;;
18568;SDS011;14780;48.316;-1.050;2023-02-07T13:20:22;5.57;;;2.25;;
18568;SDS011;14780;48.316;-1.050;2023-02-07T13:23:24;5.63;;;2.67;;
18568;SDS011;14780;48.316;-1.050;2023-02-07T13:26:17;8.10;;;2.92;;
18568;SDS011;14780;48.316;-1.050;2023-02-07T13:29:05;6.18;;;2.58;;
18568;SDS011;14780;48.316;-1.050;2023-02-07T13:31:59;6.28;;;2.60;;
18568;SDS011;14780;48.316;-1.050;2023-02-07T13:35:02;8.48;;;2.80;;
18568;SDS011;14780;48.316;-1.050;2023-02-07T13:38:03;7.30;;;2.90;;
18568;SDS011;14780;48.316;-1.050;2023-02-07T13:50:18;4.68;;;2.35;;
18568;SDS011;14780;48.316;-1.050;2023-02-07T13:56:12;5.13;;;2.55;;
18568;SDS011;14780;48.316;-1.050;2023-02-07T14:02:23;5.60;;;2.75;;
18568;SDS011;14780;48.316;-1.050;2023-02-07T14:05:10;4.95;;;2.30;;
18568;SDS011;14780;48.316;-1.050;2023-02-07T14:11:00;6.05;;;2.88;;
18568;SDS011;14780;48.316;-1.050;2023-02-07T14:14:25;5.60;;;3.17;;
18568;SDS011;14780;48.316;-1.050;2023-02-07T14:26:56;3.42;;;2.47;;
18568;SDS011;14780;48.316;-1.050;2023-02-07T14:29:52;4.18;;;2.40;;
18568;SDS011;14780;48.316;-1.050;2023-02-07T14:32:40;5.10;;;2.40;;
18568;SDS011;14780;48.316;-1.050;2023-02-07T14:35:28;3.40;;;2.17;;
18568;SDS011;14780;48.316;-1.050;2023-02-07T14:38:25;4.63;;;2.30;;
18568;SDS011;14780;48.316;-1.050;2023-02-07T14:41:17;4.18;;;2.17;;
18568;SDS011;14780;48.316;-1.050;2023-02-07T14:44:23;4.60;;;2.20;;
18568;SDS011;14780;48.316;-1.050;2023-02-07T14:47:22;4.15;;;2.13;;
18568;SDS011;14780;48.316;-1.050;2023-02-07T14:50:16;5.55;;;2.40;;
18568;SDS011;14780;48.316;-1.050;2023-02-07T14:53:05;4.78;;;2.45;;
18568;SDS011;14780;48.316;-1.050;2023-02-07T14:55:59;4.63;;;2.57;;
18568;SDS011;14780;48.316;-1.050;2023-02-07T14:58:47;4.15;;;2.40;;
18568;SDS011;14780;48.316;-1.050;2023-02-07T15:01:34;3.40;;;2.28;;
18568;SDS011;14780;48.316;-1.050;2023-02-07T15:04:19;4.95;;;2.38;;
18568;SDS011;14780;48.316;-1.050;2023-02-07T15:07:09;2.88;;;2.10;;
18568;SDS011;14780;48.316;-1.050;2023-02-07T15:09:54;3.90;;;2.15;;
18568;SDS011;14780;48.316;-1.050;2023-02-07T15:12:39;3.90;;;2.38;;
18568;SDS011;14780;48.316;-1.050;2023-02-07T15:15:29;4.80;;;2.30;;
18568;SDS011;14780;48.316;-1.050;2023-02-07T15:18:26;4.32;;;2.33;;
18568;SDS011;14780;48.316;-1.050;2023-02-07T15:21:22;3.63;;;2.15;;
18568;SDS011;14780;48.316;-1.050;2023-02-07T15:24:27;3.08;;;2.28;;
18568;SDS011;14780;48.316;-1.050;2023-02-07T15:27:27;3.35;;;2.20;;
18568;SDS011;14780;48.316;-1.050;2023-02-07T15:30:16;3.55;;;2.13;;
18568;SDS011;14780;48.316;-1.050;2023-02-07T15:33:01;4.05;;;2.42;;
18568;SDS011;14780;48.316;-1.050;2023-02-07T15:35:59;5.38;;;2.30;;
18568;SDS011;14780;48.316;-1.050;2023-02-07T15:38:45;3.83;;;2.30;;
18568;SDS011;14780;48.316;-1.050;2023-02-07T15:41:31;3.15;;;1.95;;
18568;SDS011;14780;48.316;-1.050;2023-02-07T15:44:18;3.72;;;2.25;;
18568;SDS011;14780;48.316;-1.050;2023-02-07T15:47:05;3.17;;;2.15;;
18568;SDS011;14780;48.316;-1.050;2023-02-07T15:50:23;4.38;;;2.40;;
18568;SDS011;14780;48.316;-1.050;2023-02-07T15:53:14;3.92;;;2.30;;
18568;SDS011;14780;48.316;-1.050;2023-02-07T15:56:06;4.03;;;2.55;;
18568;SDS011;14780;48.316;-1.050;2023-02-07T15:58:52;3.92;;;2.50;;
18568;SDS011;14780;48.316;-1.050;2023-02-07T16:01:53;4.85;;;2.45;;
18568;SDS011;14780;48.316;-1.050;2023-02-07T16:04:43;4.00;;;2.50;;
18568;SDS011;14780;48.316;-1.050;2023-02-07T16:07:28;3.22;;;2.30;;
18568;SDS011;14780;48.316;-1.050;2023-02-07T16:13:13;5.28;;;2.33;;
18568;SDS011;14780;48.316;-1.050;2023-02-07T16:16:08;4.72;;;2.53;;
18568;SDS011;14780;48.316;-1.050;2023-02-07T16:19:04;3.17;;;2.40;;
18568;SDS011;14780;48.316;-1.050;2023-02-07T16:22:05;3.72;;;2.40;;
18568;SDS011;14780;48.316;-1.050;2023-02-07T16:24:55;3.72;;;2.42;;
18568;SDS011;14780;48.316;-1.050;2023-02-07T16:27:45;4.57;;;2.65;;
18568;SDS011;14780;48.316;-1.050;2023-02-07T16:30:34;5.03;;;2.58;;
18568;SDS011;14780;48.316;-1.050;2023-02-07T16:33:20;3.40;;;2.33;;
18568;SDS011;14780;48.316;-1.050;2023-02-07T16:36:05;3.60;;;2.47;;
18568;SDS011;14780;48.316;-1.050;2023-02-07T16:38:55;3.73;;;2.50;;
18568;SDS011;14780;48.316;-1.050;2023-02-07T16:41:42;3.28;;;2.50;;
18568;SDS011;14780;48.316;-1.050;2023-02-07T16:44:33;4.45;;;2.70;;
18568;SDS011;14780;48.316;-1.050;2023-02-07T16:47:18;6.00;;;2.60;;
18568;SDS011;14780;48.316;-1.050;2023-02-07T16:50:04;4.28;;;2.75;;
18568;SDS011;14780;48.316;-1.050;2023-02-07T16:52:51;7.53;;;2.78;;
18568;SDS011;14780;48.316;-1.050;2023-02-07T16:55:39;4.13;;;2.75;;
18568;SDS011;14780;48.316;-1.050;2023-02-07T16:58:28;3.60;;;2.35;;
18568;SDS011;14780;48.316;-1.050;2023-02-07T17:01:16;5.97;;;2.65;;
18568;SDS011;14780;48.316;-1.050;2023-02-07T17:04:02;6.00;;;2.85;;
18568;SDS011;14780;48.316;-1.050;2023-02-07T17:06:47;6.22;;;2.75;;
18568;SDS011;14780;48.316;-1.050;2023-02-07T17:09:32;7.15;;;2.83;;
18568;SDS011;14780;48.316;-1.050;2023-02-07T17:12:17;5.72;;;2.80;;
18568;SDS011;14780;48.316;-1.050;2023-02-07T17:15:02;7.13;;;3.05;;
18568;SDS011;14780;48.316;-1.050;2023-02-07T17:17:47;5.63;;;2.83;;
18568;SDS011;14780;48.316;-1.050;2023-02-07T17:20:33;6.15;;;2.95;;
18568;SDS011;14780;48.316;-1.050;2023-02-07T17:23:18;5.70;;;3.10;;
18568;SDS011;14780;48.316;-1.050;2023-02-07T17:26:04;4.13;;;2.40;;
18568;SDS011;14780;48.316;-1.050;2023-02-07T17:28:54;4.43;;;3.57;;
18568;SDS011;14780;48.316;-1.050;2023-02-07T17:31:39;3.65;;;2.60;;
18568;SDS011;14780;48.316;-1.050;2023-02-07T17:34:25;4.20;;;2.63;;
18568;SDS011;14780;48.316;-1.050;2023-02-07T17:37:09;4.03;;;2.67;;
18568;SDS011;14780;48.316;-1.050;2023-02-07T17:39:54;8.85;;;3.22;;
18568;SDS011;14780;48.316;-1.050;2023-02-07T17:42:39;4.25;;;2.88;;
18568;SDS011;14780;48.316;-1.050;2023-02-07T17:45:24;5.18;;;2.95;;
18568;SDS011;14780;48.316;-1.050;2023-02-07T17:48:10;5.45;;;3.17;;
18568;SDS011;14780;48.316;-1.050;2023-02-07T17:50:55;4.13;;;3.08;;
18568;SDS011;14780;48.316;-1.050;2023-02-07T17:53:41;4.75;;;3.00;;
18568;SDS011;14780;48.316;-1.050;2023-02-07T17:56:27;4.70;;;3.17;;
18568;SDS011;14780;48.316;-1.050;2023-02-07T17:59:19;5.15;;;3.20;;
18568;SDS011;14780;48.316;-1.050;2023-02-07T18:02:07;4.50;;;3.25;;
18568;SDS011;14780;48.316;-1.050;2023-02-07T18:04:52;5.82;;;3.30;;
18568;SDS011;14780;48.316;-1.050;2023-02-07T18:07:37;4.80;;;3.22;;
18568;SDS011;14780;48.316;-1.050;2023-02-07T18:10:23;4.60;;;3.10;;
18568;SDS011;14780;48.316;-1.050;2023-02-07T18:13:12;4.60;;;3.20;;
18568;SDS011;14780;48.316;-1.050;2023-02-07T18:15:57;4.90;;;3.20;;
18568;SDS011;14780;48.316;-1.050;2023-02-07T18:18:42;5.00;;;3.30;;
18568;SDS011;14780;48.316;-1.050;2023-02-07T18:21:27;5.22;;;3.20;;
18568;SDS011;14780;48.316;-1.050;2023-02-07T18:24:12;4.90;;;3.58;;
18568;SDS011;14780;48.316;-1.050;2023-02-07T18:26:57;8.55;;;3.65;;
18568;SDS011;14780;48.316;-1.050;2023-02-07T18:29:42;4.78;;;3.50;;
18568;SDS011;14780;48.316;-1.050;2023-02-07T18:32:27;4.25;;;3.25;;
18568;SDS011;14780;48.316;-1.050;2023-02-07T18:35:12;6.25;;;3.80;;